< < Back
Terminal Aerodrome Forecast


Current Version              Previous Versions:   1  2  3  4  5  6  7  8  9  

Terminal Aerodrome Forecast

888
FTUS44 KOHX 282300
TAFCSV
TAF
KCSV 282321Z 2900/2924 16004KT P6SM SKC
     FM291500 19009G18KT P6SM SCT250=



Latest METAR

891
SAUS70 KWBC 290500
MTRCSV
METAR KCSV 290453Z AUTO 17006KT 10SM CLR 03/M08 A3016 RMK AO2 SLP222
T00281083


USA.gov is the U.S. government's official web portal to all federal, state and local government web resources and services.